Time;durP1;ratioP1;P1;durP2;ratioP2;P2;SDS_P1;SDS_P2;PMS_P1;PMS_P2;Temp;Humidity;BMP_temperature;BMP_pressure;BME280_temperature;BME280_humidity;BME280_pressure;Samples;Min_cycle;Max_cycle;Signal;HPM_P1;HPM_P2
2022/08/17 00:01:07;;;;;;;3.65;3.35;;;20.80;66.70;;;;;;4994612;28;20029;-86
2022/08/17 00:03:37;;;;;;;3.60;3.30;;;20.80;66.80;;;;;;5034391;28;20056;-88
2022/08/17 00:06:12;;;;;;;4.85;3.95;;;20.80;66.80;;;;;;5027373;28;20412;-88
2022/08/17 00:08:45;;;;;;;3.90;3.60;;;20.80;66.80;;;;;;5037350;28;20045;-88
2022/08/17 00:11:22;;;;;;;3.58;3.28;;;20.80;66.90;;;;;;5026602;28;20026;-86
2022/08/17 00:13:52;;;;;;;3.67;3.35;;;20.70;66.70;;;;;;5006876;28;20509;-86
2022/08/17 00:16:25;;;;;;;4.60;3.63;;;20.70;66.70;;;;;;5001040;28;20041;-87
2022/08/17 00:18:51;;;;;;;3.88;3.58;;;20.70;66.70;;;;;;5010052;28;20026;-88
2022/08/17 00:21:19;;;;;;;3.28;3.03;;;20.70;66.70;;;;;;4997113;28;20037;-87
2022/08/17 00:23:45;;;;;;;4.38;3.70;;;20.70;66.80;;;;;;5026763;28;20017;-88
2022/08/17 00:26:12;;;;;;;3.72;3.42;;;20.70;66.80;;;;;;5002529;28;20030;-87
2022/08/17 00:28:39;;;;;;;4.10;3.80;;;20.70;66.90;;;;;;5000324;28;20569;-86
2022/08/17 00:31:07;;;;;;;4.05;3.55;;;20.60;66.70;;;;;;5017320;28;20146;-86
2022/08/17 00:33:33;;;;;;;3.67;3.38;;;20.60;66.70;;;;;;4996714;28;20136;-86
2022/08/17 00:36:00;;;;;;;3.70;3.40;;;20.60;66.70;;;;;;5028036;28;20357;-88
2022/08/17 00:38:27;;;;;;;3.80;3.50;;;20.70;66.90;;;;;;5031531;28;20026;-88
2022/08/17 00:40:58;;;;;;;3.63;3.42;;;20.60;66.70;;;;;;5017849;28;20025;-86
2022/08/17 00:43:42;;;;;;;3.78;3.47;;;20.70;66.90;;;;;;5010442;28;20025;-84
2022/08/17 00:46:16;;;;;;;3.53;3.30;;;20.60;66.80;;;;;;5019448;28;20041;-85
2022/08/17 00:48:43;;;;;;;4.25;3.85;;;20.60;66.70;;;;;;5014325;28;20131;-85
2022/08/17 00:51:21;;;;;;;4.32;3.92;;;20.70;66.90;;;;;;5031580;28;20021;-87
2022/08/17 00:53:55;;;;;;;3.80;3.50;;;20.60;66.80;;;;;;5015616;28;20693;-86
2022/08/17 00:56:27;;;;;;;3.95;3.65;;;20.60;66.80;;;;;;5009455;28;20038;-86
2022/08/17 00:58:54;;;;;;;4.25;3.85;;;20.60;66.80;;;;;;5030970;28;20535;-85
2022/08/17 01:01:20;;;;;;;4.07;3.58;;;20.60;66.70;;;;;;5014526;28;20226;-87
2022/08/17 01:03:47;;;;;;;3.92;3.60;;;20.60;66.80;;;;;;5009998;28;20607;-88
2022/08/17 01:06:13;;;;;;;4.07;3.78;;;20.60;66.80;;;;;;5017315;28;20077;-86
2022/08/17 01:08:39;;;;;;;5.22;3.97;;;20.60;66.90;;;;;;5016751;28;20037;-88
2022/08/17 01:11:06;;;;;;;4.35;4.05;;;20.60;66.90;;;;;;5016640;28;20366;-85
2022/08/17 01:13:40;;;;;;;5.40;4.13;;;20.60;66.90;;;;;;5000521;28;20388;-84
2022/08/17 01:16:16;;;;;;;5.78;5.13;;;20.60;66.90;;;;;;4979945;28;20045;-84
2022/08/17 01:18:45;;;;;;;4.53;4.22;;;20.60;66.90;;;;;;5039980;28;20276;-85
2022/08/17 01:21:23;;;;;;;5.18;4.13;;;20.60;66.90;;;;;;5013937;28;20048;-84
2022/08/17 01:23:49;;;;;;;4.85;4.35;;;20.60;67.00;;;;;;5013586;28;20036;-85
2022/08/17 01:26:15;;;;;;;5.65;5.15;;;20.60;66.90;;;;;;5033071;28;20025;-84
2022/08/17 01:28:41;;;;;;;4.63;4.22;;;20.60;66.90;;;;;;5030954;28;20045;-85
2022/08/17 01:31:08;;;;;;;4.72;4.28;;;20.60;67.50;;;;;;5022086;28;20084;-84
2022/08/17 01:33:34;;;;;;;4.80;4.25;;;20.60;66.90;;;;;;5031820;28;20101;-86
2022/08/17 01:36:01;;;;;;;6.80;5.03;;;20.60;67.00;;;;;;5011783;28;20041;-84
2022/08/17 01:38:30;;;;;;;5.78;5.18;;;20.60;67.00;;;;;;5029818;28;20437;-84
2022/08/17 01:41:00;;;;;;;5.38;4.88;;;20.60;67.00;;;;;;4992204;28;20025;-85
2022/08/17 01:43:36;;;;;;;5.43;5.03;;;20.60;67.00;;;;;;5006831;28;20063;-85
2022/08/17 01:46:03;;;;;;;6.15;5.65;;;20.60;67.10;;;;;;4993249;28;20263;-83
2022/08/17 01:48:31;;;;;;;5.53;5.05;;;20.60;67.10;;;;;;5016484;28;20445;-85
2022/08/17 01:50:58;;;;;;;7.15;5.25;;;20.50;66.90;;;;;;5035959;28;20107;-85
2022/08/17 01:53:31;;;;;;;6.30;5.80;;;20.60;67.10;;;;;;5026252;28;20029;-86
2022/08/17 01:56:06;;;;;;;5.82;5.30;;;20.60;67.20;;;;;;5008711;28;20044;-86
2022/08/17 01:58:34;;;;;;;7.55;6.18;;;20.60;67.20;;;;;;5031264;28;20143;-86
2022/08/17 02:01:02;;;;;;;6.05;5.55;;;20.60;67.20;;;;;;5002323;28;20037;-86
2022/08/17 02:03:29;;;;;;;5.97;5.57;;;20.50;67.00;;;;;;5049378;28;20107;-87
2022/08/17 02:05:57;;;;;;;6.95;6.25;;;20.60;67.30;;;;;;5051370;28;20049;-87
2022/08/17 02:08:23;;;;;;;6.18;5.50;;;20.60;67.30;;;;;;5047672;28;20111;-84
2022/08/17 02:10:49;;;;;;;7.03;6.03;;;20.50;67.10;;;;;;4985972;28;20473;-83
2022/08/17 02:13:16;;;;;;;7.43;6.72;;;20.50;67.10;;;;;;5001969;28;20064;-84
2022/08/17 02:15:43;;;;;;;8.02;7.32;;;20.50;67.20;;;;;;4999030;28;20043;-85
2022/08/17 02:18:09;;;;;;;7.53;6.82;;;20.50;67.20;;;;;;5013587;28;20114;-84
2022/08/17 02:20:37;;;;;;;7.68;6.95;;;20.50;67.20;;;;;;4992690;28;20276;-84
2022/08/17 02:23:07;;;;;;;6.60;6.15;;;20.50;67.30;;;;;;5026105;28;20439;-83
2022/08/17 02:25:35;;;;;;;6.43;5.72;;;20.50;67.30;;;;;;5013736;28;20033;-83
2022/08/17 02:28:02;;;;;;;7.50;6.80;;;20.50;67.30;;;;;;5015756;28;20021;-82
2022/08/17 02:30:28;;;;;;;7.20;6.60;;;20.50;67.40;;;;;;5019000;28;20039;-86
2022/08/17 02:32:54;;;;;;;7.05;6.45;;;20.50;67.40;;;;;;5013582;28;20041;-83
2022/08/17 02:35:21;;;;;;;9.57;7.32;;;20.50;67.40;;;;;;5028539;28;20032;-86
2022/08/17 02:37:48;;;;;;;7.82;7.05;;;20.50;67.40;;;;;;5025715;28;20260;-85
2022/08/17 02:40:15;;;;;;;8.20;7.50;;;20.40;67.30;;;;;;5011941;28;20120;-86
2022/08/17 02:42:43;;;;;;;7.97;7.28;;;20.50;68.00;;;;;;4982543;28;20022;-85
2022/08/17 02:45:13;;;;;;;9.05;8.25;;;20.40;67.30;;;;;;5020799;28;20033;-85
2022/08/17 02:47:39;;;;;;;9.55;8.65;;;20.40;67.40;;;;;;5010688;28;20030;-85
2022/08/17 02:50:07;;;;;;;10.32;8.50;;;20.40;67.40;;;;;;5025080;28;20025;-85
2022/08/17 02:52:36;;;;;;;9.10;8.32;;;20.40;67.40;;;;;;5026840;28;20028;-86
2022/08/17 02:55:10;;;;;;;9.48;8.68;;;20.40;67.50;;;;;;5021070;28;20035;-83
2022/08/17 02:57:36;;;;;;;10.20;9.25;;;20.40;67.50;;;;;;5039421;28;20057;-85
2022/08/17 03:00:11;;;;;;;9.40;8.60;;;20.40;67.50;;;;;;5002582;28;20022;-84
2022/08/17 03:02:39;;;;;;;11.05;9.05;;;20.40;67.60;;;;;;5025904;28;20029;-84
2022/08/17 03:05:07;;;;;;;9.35;8.52;;;20.40;67.60;;;;;;5014911;28;20198;-87
2022/08/17 03:07:34;;;;;;;9.65;8.85;;;20.40;67.60;;;;;;5028685;28;20025;-85
2022/08/17 03:10:00;;;;;;;9.93;9.02;;;20.40;67.60;;;;;;5013520;28;20036;-85
2022/08/17 03:12:31;;;;;;;11.35;10.18;;;20.40;67.60;;;;;;5028508;28;20030;-84
2022/08/17 03:14:57;;;;;;;11.00;10.07;;;20.40;67.60;;;;;;5004776;28;20033;-85
2022/08/17 03:17:23;;;;;;;11.50;10.32;;;20.40;67.70;;;;;;4999965;28;20276;-84
2022/08/17 03:19:49;;;;;;;10.70;9.68;;;20.40;67.70;;;;;;5029755;28;20512;-84
2022/08/17 03:22:15;;;;;;;9.88;8.98;;;20.40;67.80;;;;;;4984847;28;20373;-84
2022/08/17 03:24:41;;;;;;;10.65;9.68;;;20.40;67.80;;;;;;5029016;28;20044;-85
2022/08/17 03:27:06;;;;;;;10.63;9.73;;;20.40;67.80;;;;;;4999918;28;20057;-84
2022/08/17 03:29:32;;;;;;;11.50;10.32;;;20.40;67.80;;;;;;5036513;28;20450;-85
2022/08/17 03:32:00;;;;;;;11.63;10.63;;;20.40;67.80;;;;;;5010054;28;20030;-84
2022/08/17 03:34:26;;;;;;;10.65;9.75;;;20.40;67.90;;;;;;5029226;28;20031;-85
2022/08/17 03:36:52;;;;;;;11.48;10.48;;;20.40;67.90;;;;;;4977755;28;20033;-85
2022/08/17 03:39:18;;;;;;;10.70;9.80;;;20.40;67.90;;;;;;5029352;28;20021;-85
2022/08/17 03:41:44;;;;;;;10.57;9.38;;;20.40;67.90;;;;;;5011944;28;20348;-84
2022/08/17 03:44:11;;;;;;;10.77;9.88;;;20.40;68.00;;;;;;5001765;28;20078;-86
2022/08/17 03:57:36;;;;;;;12.57;11.48;;;20.30;67.90;;;;;;5033839;28;20117;-85
2022/08/17 04:00:03;;;;;;;11.18;10.18;;;20.30;67.90;;;;;;5006179;28;20040;-86
2022/08/17 04:02:37;;;;;;;10.00;9.10;;;20.30;68.00;;;;;;4999539;28;20045;-84
2022/08/17 04:05:04;;;;;;;10.68;9.68;;;20.30;68.00;;;;;;5029413;28;20025;-86
2022/08/17 04:07:31;;;;;;;11.13;10.13;;;20.30;68.00;;;;;;5020158;28;20075;-86
2022/08/17 04:09:58;;;;;;;10.98;9.98;;;20.30;68.00;;;;;;5028226;28;20315;-87
2022/08/17 04:12:29;;;;;;;12.70;11.48;;;20.30;68.10;;;;;;5016219;28;20105;-86
2022/08/17 04:14:55;;;;;;;11.25;10.20;;;20.30;68.20;;;;;;5019266;28;20389;-84
2022/08/17 04:17:24;;;;;;;11.13;9.90;;;20.30;68.20;;;;;;4997793;28;20032;-84
2022/08/17 04:19:51;;;;;;;10.43;9.55;;;20.30;68.30;;;;;;4994699;28;20034;-84
2022/08/17 04:22:17;;;;;;;10.63;9.73;;;20.30;68.30;;;;;;5004620;28;20033;-85
2022/08/17 04:24:43;;;;;;;10.20;9.30;;;20.30;68.30;;;;;;5030707;28;20032;-88
2022/08/17 04:27:09;;;;;;;11.00;10.10;;;20.30;68.30;;;;;;5001971;28;20029;-88
2022/08/17 04:29:34;;;;;;;10.88;9.98;;;20.30;68.40;;;;;;5004602;28;20147;-88
2022/08/17 04:32:01;;;;;;;11.05;10.05;;;20.30;68.40;;;;;;5010866;28;20033;-89
2022/08/17 04:34:27;;;;;;;11.10;10.10;;;20.30;68.40;;;;;;5006060;28;20029;-88
2022/08/17 04:36:53;;;;;;;10.95;10.05;;;20.30;68.40;;;;;;5028265;28;20030;-83
2022/08/17 04:39:19;;;;;;;10.63;9.73;;;20.30;68.40;;;;;;5001566;28;20026;-85
2022/08/17 04:44:29;;;;;;;9.35;8.55;;;20.30;68.40;;;;;;5013093;28;20137;-86
2022/08/17 04:46:55;;;;;;;10.50;9.57;;;20.30;68.40;;;;;;5016133;28;20523;-83
2022/08/17 04:49:21;;;;;;;10.10;9.20;;;20.40;68.60;;;;;;4993059;28;20037;-86
2022/08/17 04:51:47;;;;;;;8.50;7.72;;;20.30;68.40;;;;;;4997445;28;20504;-86
2022/08/17 04:54:18;;;;;;;8.27;7.50;;;20.30;68.50;;;;;;5002045;28;20021;-84
2022/08/17 04:56:45;;;;;;;9.65;8.85;;;20.30;68.50;;;;;;4980578;28;20048;-86
2022/08/17 04:59:20;;;;;;;8.15;7.45;;;20.30;68.50;;;;;;5013827;28;20033;-87
2022/08/17 05:01:50;;;;;;;8.30;7.60;;;20.30;68.50;;;;;;5009501;28;20469;-86
2022/08/17 05:04:21;;;;;;;10.15;8.00;;;20.30;68.50;;;;;;5017103;28;20036;-85
2022/08/17 05:06:48;;;;;;;7.20;6.50;;;20.30;68.50;;;;;;5009684;28;20102;-86
2022/08/17 05:09:16;;;;;;;7.03;6.32;;;20.30;68.60;;;;;;5032591;28;20037;-85
2022/08/17 05:11:43;;;;;;;7.40;6.03;;;20.30;68.60;;;;;;5031871;28;20044;-87
2022/08/17 05:14:09;;;;;;;6.22;5.70;;;20.30;68.60;;;;;;5026165;28;20066;-85
2022/08/17 05:16:35;;;;;;;5.78;5.25;;;20.30;68.70;;;;;;4995446;28;20048;-85
2022/08/17 05:19:01;;;;;;;7.10;6.50;;;20.30;68.70;;;;;;5000334;28;20372;-85
2022/08/17 05:21:28;;;;;;;5.90;5.40;;;20.30;68.70;;;;;;5014315;28;20042;-85
2022/08/17 05:23:57;;;;;;;5.95;5.35;;;20.30;68.70;;;;;;5015675;28;20021;-85
2022/08/17 05:26:25;;;;;;;6.10;5.22;;;20.30;68.70;;;;;;4999490;28;20090;-85
2022/08/17 05:28:57;;;;;;;6.45;5.85;;;20.30;68.70;;;;;;4992417;28;20022;-84
2022/08/17 05:31:23;;;;;;;5.43;4.97;;;20.30;68.80;;;;;;5027224;28;20114;-85
2022/08/17 05:33:52;;;;;;;5.25;4.75;;;20.30;68.70;;;;;;5012213;28;20021;-81
2022/08/17 05:36:18;;;;;;;5.45;5.05;;;20.30;68.70;;;;;;5023530;28;20720;-83
2022/08/17 05:38:44;;;;;;;5.80;4.82;;;20.30;68.70;;;;;;5027566;28;20022;-82
2022/08/17 05:41:10;;;;;;;5.75;5.32;;;20.40;68.80;;;;;;5019625;28;20048;-88
2022/08/17 05:43:39;;;;;;;5.30;4.90;;;20.40;68.80;;;;;;5028053;28;20021;-86
2022/08/17 05:46:27;;;;;;;5.30;4.85;;;20.40;68.90;;;;;;5029023;28;20030;-84
2022/08/17 05:49:01;;;;;;;5.53;5.13;;;20.40;69.10;;;;;;5028617;28;20025;-88
2022/08/17 05:51:36;;;;;;;5.65;5.10;;;20.40;69.00;;;;;;5029719;28;20101;-91
2022/08/17 05:54:38;;;;;;;4.78;4.38;;;20.40;69.20;;;;;;5006886;28;20144;-86
2022/08/17 05:57:24;;;;;;;6.65;5.35;;;20.40;69.20;;;;;;5024163;28;20507;-85
2022/08/17 05:59:56;;;;;;;8.20;6.50;;;20.40;69.10;;;;;;5014975;28;20026;-81
2022/08/17 06:02:40;;;;;;;7.30;6.60;;;20.40;69.10;;;;;;5001314;28;20033;-81
2022/08/17 06:05:22;;;;;;;7.80;7.20;;;20.40;69.50;;;;;;5021493;28;20125;-82
2022/08/17 06:07:58;;;;;;;7.20;6.60;;;20.40;69.70;;;;;;5002841;28;20143;-85
2022/08/17 06:10:39;;;;;;;6.55;5.97;;;20.50;70.20;;;;;;5008042;28;20029;-81
2022/08/17 06:13:15;;;;;;;7.38;6.78;;;20.50;70.50;;;;;;5011570;28;20018;-80
2022/08/17 06:15:54;;;;;;;7.03;6.32;;;20.50;70.50;;;;;;5007746;28;20682;-80
2022/08/17 06:18:24;;;;;;;7.43;6.70;;;20.50;70.70;;;;;;5022249;28;20110;-88
2022/08/17 06:20:59;;;;;;;7.95;6.97;;;20.50;70.60;;;;;;4996983;28;20052;-86
2022/08/17 06:23:39;;;;;;;5.97;5.05;;;20.50;70.80;;;;;;5025749;28;20037;-86
2022/08/17 06:26:19;;;;;;;5.93;5.43;;;20.60;71.10;;;;;;5024270;28;20022;-84
2022/08/17 06:29:01;;;;;;;5.97;5.47;;;20.60;71.10;;;;;;5012149;28;20034;-85
2022/08/17 06:31:34;;;;;;;6.18;5.03;;;20.60;71.20;;;;;;5026769;28;20052;-82
2022/08/17 06:34:04;;;;;;;6.32;5.05;;;20.60;71.00;;;;;;5023166;28;20113;-86
2022/08/17 06:36:44;;;;;;;5.57;5.07;;;20.70;71.10;;;;;;5025255;28;20186;-85
2022/08/17 06:39:41;;;;;;;8.73;5.90;;;20.70;71.20;;;;;;5024693;28;20098;-85
2022/08/17 06:42:30;;;;;;;5.88;4.35;;;20.80;71.30;;;;;;5010837;28;20046;-83
2022/08/17 06:45:13;;;;;;;4.90;4.50;;;20.80;71.20;;;;;;5005166;28;20069;-83
2022/08/17 06:47:57;;;;;;;4.63;4.20;;;20.90;71.20;;;;;;5021671;28;20167;-86
2022/08/17 06:50:30;;;;;;;5.15;4.30;;;21.00;71.20;;;;;;5028182;28;20038;-87
2022/08/17 06:53:04;;;;;;;5.22;4.80;;;21.00;71.00;;;;;;5023932;28;20013;-89
2022/08/17 06:55:49;;;;;;;4.28;3.85;;;21.10;71.00;;;;;;5012399;28;20619;-83
2022/08/17 06:58:21;;;;;;;4.45;3.85;;;21.10;70.90;;;;;;5024399;28;20485;-83
2022/08/17 07:00:50;;;;;;;4.83;4.43;;;21.10;70.70;;;;;;5024202;28;20025;-89
2022/08/17 07:03:40;;;;;;;4.53;4.13;;;21.10;70.60;;;;;;5012017;28;20392;-88
2022/08/17 07:06:17;;;;;;;4.15;3.85;;;21.20;70.70;;;;;;5016643;28;20030;-85
2022/08/17 07:09:07;;;;;;;4.78;4.35;;;21.30;70.70;;;;;;5024823;28;20101;-86
2022/08/17 07:12:01;;;;;;;4.55;4.10;;;21.30;70.50;;;;;;5023194;28;20079;-84
2022/08/17 07:14:50;;;;;;;4.25;3.85;;;21.40;70.40;;;;;;5025126;28;20498;-84
2022/08/17 07:17:19;;;;;;;4.43;3.97;;;21.50;70.30;;;;;;5023043;28;20095;-83
2022/08/17 07:19:48;;;;;;;3.83;3.53;;;21.60;70.20;;;;;;5024610;28;20129;-84
2022/08/17 07:22:29;;;;;;;4.00;3.70;;;21.60;70.00;;;;;;5027742;28;20038;-84
2022/08/17 07:24:59;;;;;;;4.43;3.35;;;21.80;70.10;;;;;;5008777;28;20685;-83
2022/08/17 07:27:35;;;;;;;3.78;3.47;;;21.90;70.00;;;;;;5023873;28;20368;-86
2022/08/17 07:30:05;;;;;;;3.22;2.92;;;22.00;70.00;;;;;;5023029;28;20396;-82
2022/08/17 07:32:56;;;;;;;3.83;3.42;;;22.10;69.90;;;;;;5022463;28;20167;-84
2022/08/17 07:35:28;;;;;;;3.83;3.50;;;22.20;69.80;;;;;;4986735;28;20046;-85
2022/08/17 07:38:17;;;;;;;2.92;2.72;;;22.30;69.60;;;;;;5026650;28;20038;-92
2022/08/17 07:41:02;;;;;;;3.65;2.97;;;22.40;69.50;;;;;;5031647;28;20029;-85
2022/08/17 07:43:30;;;;;;;3.40;3.10;;;22.40;69.30;;;;;;5029724;28;20047;-85
2022/08/17 07:48:49;;;;;;;3.60;2.33;;;22.50;69.30;;;;;;5014115;28;20502;-83
2022/08/17 07:51:28;;;;;;;3.17;2.97;;;22.40;69.10;;;;;;5025535;28;20028;-88
2022/08/17 07:53:58;;;;;;;3.33;3.08;;;22.50;69.20;;;;;;5025471;28;20021;-85
2022/08/17 07:56:40;;;;;;;5.05;2.92;;;22.50;69.10;;;;;;5027346;28;20416;-87
2022/08/17 07:59:08;;;;;;;3.43;3.13;;;22.50;69.00;;;;;;5031379;28;20378;-89
2022/08/17 08:01:36;;;;;;;2.85;2.65;;;22.60;69.00;;;;;;5013810;28;20033;-86
2022/08/17 08:04:29;;;;;;;3.63;2.50;;;22.60;68.90;;;;;;5035145;28;20040;-89
2022/08/17 08:07:01;;;;;;;2.70;2.50;;;22.60;68.80;;;;;;5013572;28;20037;-86
2022/08/17 08:09:31;;;;;;;3.33;2.30;;;22.80;68.90;;;;;;5034468;28;20034;-83
2022/08/17 08:11:59;;;;;;;3.70;2.53;;;22.90;68.60;;;;;;5027846;28;20034;-87
2022/08/17 08:14:37;;;;;;;4.53;2.65;;;23.10;68.60;;;;;;5011938;28;20322;-87
2022/08/17 08:17:06;;;;;;;2.70;2.47;;;23.30;68.50;;;;;;5022967;28;20041;-90
2022/08/17 08:19:33;;;;;;;2.97;2.22;;;23.40;68.20;;;;;;5027991;28;20026;-87
2022/08/17 08:22:17;;;;;;;3.38;2.72;;;23.50;68.00;;;;;;5028033;28;20032;-86
2022/08/17 08:25:06;;;;;;;2.75;2.55;;;23.60;67.90;;;;;;5026672;28;20107;-86
2022/08/17 08:27:56;;;;;;;4.55;3.00;;;23.70;67.80;;;;;;4976060;28;20049;-84
2022/08/17 08:30:23;;;;;;;5.65;3.20;;;23.80;67.80;;;;;;5025314;28;20030;-86
2022/08/17 08:33:08;;;;;;;5.15;2.28;;;23.80;67.60;;;;;;5030738;28;20422;-87
2022/08/17 08:36:04;;;;;;;3.08;2.70;;;23.80;67.50;;;;;;5022407;28;20048;-88
2022/08/17 08:38:48;;;;;;;3.28;2.88;;;23.90;67.30;;;;;;5015698;28;20053;-86
2022/08/17 08:41:37;;;;;;;3.78;2.80;;;24.00;67.30;;;;;;5025404;28;20043;-88
2022/08/17 08:44:28;;;;;;;3.75;2.88;;;24.10;67.20;;;;;;5028388;28;20043;-87
2022/08/17 08:47:06;;;;;;;5.65;2.63;;;24.20;67.10;;;;;;5024816;28;20083;-85
2022/08/17 08:49:44;;;;;;;4.13;2.33;;;24.30;67.00;;;;;;5011230;28;20252;-86
2022/08/17 08:52:31;;;;;;;4.05;2.40;;;24.40;66.90;;;;;;5025660;28;20449;-86
2022/08/17 08:55:12;;;;;;;3.35;2.50;;;24.40;66.60;;;;;;5000625;28;20045;-85
2022/08/17 08:57:49;;;;;;;3.97;2.45;;;24.40;66.60;;;;;;5026246;28;20488;-82
2022/08/17 09:00:21;;;;;;;3.88;2.45;;;24.40;66.60;;;;;;5028267;28;20029;-86
2022/08/17 09:03:15;;;;;;;3.58;2.42;;;24.30;66.50;;;;;;5026792;28;20045;-85
2022/08/17 09:05:52;;;;;;;2.97;2.67;;;24.30;66.50;;;;;;5017059;28;20145;-85
2022/08/17 09:08:38;;;;;;;3.58;2.35;;;24.20;66.40;;;;;;5014394;28;20098;-85
2022/08/17 09:11:25;;;;;;;2.40;1.98;;;24.30;66.50;;;;;;5027193;28;20232;-87
2022/08/17 09:14:38;;;;;;;5.07;2.53;;;24.30;66.50;;;;;;5013137;28;20079;-86
2022/08/17 09:17:11;;;;;;;2.60;2.00;;;24.40;66.40;;;;;;4989893;28;20053;-87
2022/08/17 09:20:10;;;;;;;4.72;2.58;;;24.40;66.20;;;;;;5017488;28;20029;-86
2022/08/17 09:22:43;;;;;;;2.25;2.05;;;24.50;66.20;;;;;;4998362;28;20044;-88
2022/08/17 09:25:20;;;;;;;2.80;2.30;;;24.70;66.20;;;;;;5035775;28;20025;-88
2022/08/17 09:27:58;;;;;;;3.33;2.17;;;24.80;65.90;;;;;;5024470;28;20379;-87
2022/08/17 09:30:28;;;;;;;3.42;2.08;;;25.10;65.90;;;;;;5013415;28;20033;-85
2022/08/17 09:33:07;;;;;;;3.22;2.05;;;25.20;65.50;;;;;;4995322;28;20038;-90
2022/08/17 09:35:48;;;;;;;3.05;2.75;;;25.50;65.20;;;;;;4991670;28;20596;-87
2022/08/17 09:38:31;;;;;;;4.93;2.25;;;25.70;64.70;;;;;;5022805;28;20029;-87
2022/08/17 09:41:05;;;;;;;;;;;26.00;64.30;;;;;;5033188;28;20038;-87
2022/08/17 09:43:46;;;;;;;5.07;3.15;;;26.20;64.00;;;;;;5006642;28;19909;-89
2022/08/17 09:46:29;;;;;;;3.03;2.60;;;26.30;63.50;;;;;;5023678;28;20025;-83
2022/08/17 09:49:06;;;;;;;2.55;2.35;;;26.40;63.20;;;;;;4990624;28;20045;-88
2022/08/17 09:51:43;;;;;;;2.75;2.55;;;26.50;63.10;;;;;;5006977;28;20042;-86
2022/08/17 09:54:24;;;;;;;4.30;2.65;;;26.50;63.10;;;;;;5026871;28;20029;-89
2022/08/17 09:57:14;;;;;;;3.10;2.40;;;26.40;62.90;;;;;;5027019;28;20097;-88
2022/08/17 09:59:55;;;;;;;3.10;2.75;;;26.40;62.90;;;;;;5026246;28;20099;-88
2022/08/17 10:02:52;;;;;;;3.45;2.55;;;26.30;63.00;;;;;;4991753;28;20041;-86
2022/08/17 10:05:26;;;;;;;3.17;2.20;;;26.20;63.00;;;;;;4976315;28;20044;-87
2022/08/17 10:08:01;;;;;;;3.70;2.55;;;26.20;63.10;;;;;;4993570;28;20037;-86
2022/08/17 10:10:35;;;;;;;3.50;2.53;;;26.10;63.00;;;;;;5016558;28;20036;-86
2022/08/17 10:14:10;;;;;;;3.65;2.50;;;26.10;63.00;;;;;;5009192;28;20037;-86
2022/08/17 10:16:50;;;;;;;2.97;2.70;;;26.00;63.10;;;;;;4897861;28;20061;-88
2022/08/17 10:19:35;;;;;;;3.67;3.10;;;25.90;63.20;;;;;;4990831;28;20029;-88
2022/08/17 10:27:50;;;;;;;4.50;3.05;;;25.80;63.30;;;;;;5011995;28;20123;-82
2022/08/17 10:30:23;;;;;;;2.47;2.20;;;25.70;63.30;;;;;;5019510;28;20048;-86
2022/08/17 10:32:55;;;;;;;4.47;2.60;;;25.70;63.40;;;;;;5030943;28;20075;-82
2022/08/17 10:35:37;;;;;;;3.07;2.43;;;25.70;63.40;;;;;;4998166;28;20049;-86
2022/08/17 10:38:36;;;;;;;3.25;2.53;;;25.70;63.30;;;;;;5026379;28;20316;-88
2022/08/17 10:41:31;;;;;;;2.80;2.33;;;25.70;63.20;;;;;;5007432;28;20305;-86
2022/08/17 10:44:23;;;;;;;5.40;3.13;;;25.70;63.20;;;;;;4990800;28;20060;-86
2022/08/17 10:47:05;;;;;;;5.50;3.13;;;25.60;63.20;;;;;;5016120;28;20127;-87
2022/08/17 10:49:35;;;;;;;4.18;2.65;;;25.60;63.30;;;;;;5029298;28;20203;-86
2022/08/17 10:52:21;;;;;;;2.75;2.50;;;25.70;63.20;;;;;;5007042;28;20388;-87
2022/08/17 10:54:52;;;;;;;5.05;3.17;;;25.70;63.00;;;;;;5020108;28;20034;-87
2022/08/17 10:57:40;;;;;;;4.03;2.60;;;25.70;62.90;;;;;;5000155;28;20130;-84
2022/08/17 11:00:16;;;;;;;3.03;2.30;;;25.80;62.90;;;;;;5004854;28;20055;-90
2022/08/17 11:02:52;;;;;;;4.22;2.85;;;25.80;62.80;;;;;;5010729;28;20059;-87
2022/08/17 11:05:52;;;;;;;2.85;2.58;;;26.00;62.70;;;;;;5007973;28;20424;-83
2022/08/17 11:08:29;;;;;;;3.17;2.47;;;26.40;62.30;;;;;;4996884;28;20035;-84
2022/08/17 11:11:34;;;;;;;2.40;2.15;;;26.80;61.80;;;;;;4987760;28;20083;-85
2022/08/17 11:14:06;;;;;;;6.07;2.75;;;27.10;61.00;;;;;;5032418;28;20033;-87
2022/08/17 11:16:47;;;;;;;3.80;3.13;;;27.50;60.70;;;;;;5029597;28;20752;-85
2022/08/17 11:19:45;;;;;;;3.67;2.67;;;27.70;60.20;;;;;;5017526;28;20025;-85
2022/08/17 11:22:25;;;;;;;4.90;2.78;;;28.00;59.70;;;;;;5018144;28;20049;-85
2022/08/17 11:24:53;;;;;;;3.15;2.60;;;28.10;59.40;;;;;;5039633;28;20041;-86
2022/08/17 11:27:29;;;;;;;3.97;2.53;;;28.20;59.10;;;;;;5032795;28;20037;-86
2022/08/17 11:30:00;;;;;;;3.05;2.78;;;28.40;58.80;;;;;;5000613;28;20053;-86
2022/08/17 11:32:48;;;;;;;3.25;2.38;;;28.50;58.50;;;;;;5006963;28;20047;-86
2022/08/17 11:35:21;;;;;;;2.80;2.55;;;28.60;58.20;;;;;;5009135;28;20068;-84
2022/08/17 11:37:57;;;;;;;3.38;2.38;;;28.80;58.00;;;;;;5056039;28;20101;-89
2022/08/17 11:40:40;;;;;;;3.33;2.60;;;28.90;57.60;;;;;;5050351;28;20503;-90
2022/08/17 11:43:23;;;;;;;4.75;2.95;;;29.10;57.30;;;;;;4999404;28;20432;-90
2022/08/17 11:45:54;;;;;;;2.65;2.40;;;29.10;57.10;;;;;;5010020;28;20037;-87
2022/08/17 11:52:06;;;;;;;3.25;2.60;;;29.30;56.80;;;;;;5018611;28;20140;-86
2022/08/17 11:54:38;;;;;;;2.45;2.15;;;29.40;56.30;;;;;;4997531;28;20056;-86
2022/08/17 11:57:24;;;;;;;3.60;2.88;;;29.60;56.30;;;;;;5030553;28;20045;-91
2022/08/17 11:59:50;;;;;;;4.45;2.90;;;29.80;55.80;;;;;;4956468;28;20045;-89
2022/08/17 12:02:29;;;;;;;3.67;3.10;;;30.00;55.60;;;;;;5024354;28;20102;-87
2022/08/17 12:05:16;;;;;;;3.28;3.00;;;30.10;54.90;;;;;;5017944;28;20063;-87
2022/08/17 12:07:48;;;;;;;3.25;2.78;;;30.20;54.60;;;;;;5034429;28;20114;-87
2022/08/17 12:10:20;;;;;;;4.93;2.70;;;30.20;54.50;;;;;;5004165;28;20502;-87
2022/08/17 12:12:55;;;;;;;2.63;2.38;;;30.30;54.40;;;;;;5003593;28;20025;-86
2022/08/17 12:15:29;;;;;;;6.13;4.55;;;30.40;54.20;;;;;;5032361;28;20018;-87
2022/08/17 12:17:57;;;;;;;5.85;3.95;;;30.50;53.80;;;;;;5031420;28;20034;-85
2022/08/17 12:20:35;;;;;;;5.05;3.42;;;30.50;53.60;;;;;;4998429;28;20030;-84
2022/08/17 12:23:34;;;;;;;5.65;3.50;;;30.50;53.30;;;;;;5013787;28;20026;-83
2022/08/17 12:26:23;;;;;;;5.90;3.72;;;30.60;52.90;;;;;;5034184;28;20028;-82
2022/08/17 12:28:57;;;;;;;4.22;3.50;;;30.70;52.30;;;;;;5020354;28;20030;-89
2022/08/17 12:31:29;;;;;;;4.60;3.60;;;30.70;52.10;;;;;;5034276;28;20152;-82
2022/08/17 12:33:56;;;;;;;13.52;5.20;;;30.50;52.00;;;;;;5040280;28;20053;-87
2022/08/17 12:36:25;;;;;;;3.42;3.13;;;30.30;51.90;;;;;;5023402;28;20160;-87
2022/08/17 12:39:00;;;;;;;3.10;2.75;;;30.20;52.00;;;;;;5009549;28;20091;-88
2022/08/17 12:41:35;;;;;;;4.70;2.83;;;30.20;52.10;;;;;;5011906;28;20059;-89
2022/08/17 12:44:10;;;;;;;3.42;2.53;;;30.20;52.00;;;;;;5019411;28;20307;-90
2022/08/17 12:46:56;;;;;;;3.67;2.25;;;30.20;52.10;;;;;;4998715;28;20022;-87
2022/08/17 12:49:41;;;;;;;2.50;2.10;;;30.20;52.00;;;;;;5012707;28;20044;-85
2022/08/17 12:52:28;;;;;;;3.63;2.10;;;30.20;52.20;;;;;;4998415;28;20484;-85
2022/08/17 12:55:21;;;;;;;2.90;1.75;;;30.40;52.00;;;;;;4990981;28;20021;-85
2022/08/17 12:57:53;;;;;;;;;;;30.60;51.60;;;;;;5010463;28;20110;-84
2022/08/17 13:00:33;;;;;;;3.30;1.90;;;30.80;51.70;;;;;;4994557;28;19917;-83
2022/08/17 13:03:11;;;;;;;4.88;2.53;;;31.10;51.50;;;;;;4996675;28;20051;-83
2022/08/17 13:05:59;;;;;;;2.25;2.05;;;31.30;51.00;;;;;;4991837;28;20033;-84
2022/08/17 13:08:37;;;;;;;2.67;1.80;;;31.40;50.60;;;;;;5013388;28;20041;-83
2022/08/17 13:11:03;;;;;;;4.55;2.15;;;31.50;50.20;;;;;;4982261;28;20053;-87
2022/08/17 13:13:37;;;;;;;2.30;1.75;;;31.50;50.30;;;;;;5024997;28;20174;-86
2022/08/17 13:16:28;;;;;;;4.43;2.38;;;31.60;50.00;;;;;;4975311;28;20082;-85
2022/08/17 13:19:07;;;;;;;4.10;2.28;;;31.70;49.70;;;;;;4992751;28;20036;-86
2022/08/17 13:21:35;;;;;;;2.15;1.70;;;31.80;49.50;;;;;;5003388;28;20034;-82
2022/08/17 13:24:09;;;;;;;3.22;1.50;;;31.90;49.60;;;;;;5000562;28;20025;-83
2022/08/17 13:27:06;;;;;;;1.83;1.40;;;31.90;49.20;;;;;;5013394;28;20036;-84
2022/08/17 13:29:34;;;;;;;2.83;1.40;;;31.90;48.80;;;;;;5025336;28;20018;-85
2022/08/17 13:32:03;;;;;;;2.20;1.45;;;31.90;49.00;;;;;;5010422;28;20040;-85
2022/08/17 13:34:53;;;;;;;2.28;1.50;;;31.90;48.50;;;;;;5030595;28;20040;-82
2022/08/17 13:37:28;;;;;;;3.17;1.77;;;31.60;48.00;;;;;;4987556;28;20575;-83
2022/08/17 13:39:57;;;;;;;4.30;1.50;;;31.40;48.40;;;;;;5026489;28;20388;-84
2022/08/17 13:42:38;;;;;;;1.45;1.35;;;31.20;48.50;;;;;;5009421;28;20484;-87
2022/08/17 13:48:13;;;;;;;3.88;2.05;;;30.80;48.10;;;;;;5024144;28;20030;-80
2022/08/17 13:50:43;;;;;;;3.67;1.73;;;30.70;48.30;;;;;;5013627;28;20047;-82
2022/08/17 13:53:31;;;;;;;1.95;1.50;;;30.60;48.40;;;;;;5009014;28;20035;-83